createdAt,value
2022-08-17T00:04:19.576Z,99.90
2022-08-17T00:09:22.227Z,99.90
2022-08-17T00:14:25.222Z,99.90
2022-08-17T00:19:27.998Z,99.90
2022-08-17T00:24:31.032Z,99.90
2022-08-17T00:29:33.745Z,99.90
2022-08-17T00:34:36.491Z,99.90
2022-08-17T00:39:39.542Z,99.90
2022-08-17T00:44:42.308Z,99.90
2022-08-17T00:49:44.840Z,99.90
2022-08-17T00:54:50.073Z,99.90
2022-08-17T01:00:02.576Z,99.90
2022-08-17T01:27:53.681Z,99.90
2022-08-17T01:33:03.458Z,99.90
2022-08-17T01:38:09.490Z,99.90
2022-08-17T01:43:28.394Z,99.90
2022-08-17T01:48:44.277Z,99.90
2022-08-17T01:53:58.451Z,99.90
2022-08-17T01:59:06.559Z,99.90
2022-08-17T02:04:13.627Z,99.90
2022-08-17T02:09:17.257Z,99.90
2022-08-17T02:14:20.090Z,99.90
2022-08-17T02:19:23.231Z,99.90
2022-08-17T02:25:00.454Z,99.90
2022-08-17T02:30:01.762Z,99.90
2022-08-17T02:35:15.253Z,99.90
2022-08-17T02:40:36.274Z,99.90
2022-08-17T02:45:41.620Z,99.90
2022-08-17T02:50:46.081Z,99.90
2022-08-17T02:55:49.435Z,99.90
2022-08-17T03:00:54.576Z,99.90
2022-08-17T03:05:58.259Z,99.90
2022-08-17T03:11:01.586Z,99.90
2022-08-17T03:16:05.028Z,99.90
2022-08-17T03:21:09.822Z,99.90
2022-08-17T03:26:15.662Z,99.90
2022-08-17T03:31:19.312Z,99.90
2022-08-17T03:36:22.460Z,99.90
2022-08-17T03:41:25.285Z,99.90
2022-08-17T03:46:46.639Z,99.90
2022-08-17T03:52:37.961Z,99.90
2022-08-17T04:03:24.317Z,99.90
2022-08-17T04:25:22.681Z,99.90
2022-08-17T04:30:30.390Z,99.90
2022-08-17T04:35:42.246Z,99.90
2022-08-17T04:41:03.386Z,99.90
2022-08-17T04:46:09.104Z,99.90
2022-08-17T04:51:16.200Z,99.90
2022-08-17T04:56:19.231Z,99.90
2022-08-17T05:01:24.717Z,99.90
2022-08-17T05:06:29.127Z,99.90
2022-08-17T05:11:32.440Z,99.90
2022-08-17T05:16:35.034Z,99.90
2022-08-17T05:21:37.541Z,99.90
2022-08-17T05:26:40.026Z,99.90
2022-08-17T05:31:45.154Z,99.90
2022-08-17T05:36:47.931Z,99.90
2022-08-17T05:41:50.362Z,99.90
2022-08-17T05:46:54.556Z,99.90
2022-08-17T05:52:19.811Z,99.90
2022-08-17T05:58:10.547Z,99.90
2022-08-17T06:03:27.127Z,99.90
2022-08-17T06:08:40.327Z,99.90
2022-08-17T06:14:16.081Z,99.90
2022-08-17T06:19:48.196Z,99.90
2022-08-17T06:24:58.184Z,99.90
2022-08-17T06:30:12.669Z,99.90
2022-08-17T06:35:44.678Z,99.90
2022-08-17T06:41:21.371Z,99.90
2022-08-17T06:46:25.531Z,99.90
2022-08-17T06:51:39.648Z,99.90
2022-08-17T06:56:55.325Z,99.90
2022-08-17T07:35:22.265Z,99.90
2022-08-17T07:40:48.389Z,99.90
2022-08-17T07:46:32.484Z,99.90
2022-08-17T07:52:50.398Z,99.90
2022-08-17T07:58:13.168Z,99.90
2022-08-17T08:04:07.386Z,99.90
2022-08-17T08:21:55.770Z,99.90
2022-08-17T08:27:10.678Z,99.90
2022-08-17T08:32:50.314Z,99.90
2022-08-17T08:37:53.122Z,99.90
2022-08-17T08:43:36.332Z,99.90
2022-08-17T08:49:12.038Z,99.90
2022-08-17T08:54:39.205Z,99.90
2022-08-17T08:59:57.988Z,99.90
2022-08-17T09:05:14.821Z,99.90
2022-08-17T09:10:39.538Z,99.90
2022-08-17T09:15:48.720Z,99.90
2022-08-17T09:20:59.615Z,99.90
2022-08-17T09:26:11.904Z,99.90
2022-08-17T09:31:23.955Z,99.90
2022-08-17T09:36:37.467Z,99.90
2022-08-17T09:41:48.894Z,99.90
2022-08-17T09:47:02.262Z,99.90
2022-08-17T09:52:21.703Z,99.90
2022-08-17T10:02:54.534Z,99.90
2022-08-17T10:08:09.270Z,99.90
2022-08-17T10:13:19.884Z,99.90
2022-08-17T10:18:35.357Z,99.90
2022-08-17T10:23:56.289Z,99.90
2022-08-17T10:29:12.757Z,99.90
2022-08-17T10:34:41.581Z,98.60
2022-08-17T10:40:00.479Z,96.90
2022-08-17T10:45:26.260Z,97.70
2022-08-17T10:50:49.744Z,98.80
2022-08-17T10:56:14.088Z,98.60
2022-08-17T11:01:17.969Z,97.80
2022-08-17T11:06:42.553Z,98.60
2022-08-17T11:12:15.547Z,98.10
2022-08-17T11:17:24.481Z,99.10
2022-08-17T11:23:01.079Z,99.40
2022-08-17T11:28:19.873Z,97.50
2022-08-17T11:33:36.778Z,99.90
2022-08-17T11:39:13.434Z,97.10
2022-08-17T11:44:59.664Z,99.60
2022-08-17T11:50:41.957Z,99.90
2022-08-17T11:55:53.258Z,96.40
2022-08-17T12:00:57.230Z,99.90
2022-08-17T12:06:23.021Z,99.90
2022-08-17T12:12:01.623Z,99.90
2022-08-17T12:17:08.618Z,99.50
2022-08-17T12:22:11.259Z,98.30
2022-08-17T12:27:57.753Z,96.20
2022-08-17T12:32:50.112Z,95.30
2022-08-17T12:37:52.999Z,96.20
2022-08-17T12:42:55.512Z,94.60
2022-08-17T12:48:08.449Z,93.50
2022-08-17T12:53:17.467Z,94.30
2022-08-17T12:58:26.831Z,95.00
2022-08-17T13:03:37.731Z,94.80
2022-08-17T13:08:47.991Z,94.20
2022-08-17T13:13:55.085Z,92.70
2022-08-17T13:19:15.209Z,95.60
2022-08-17T13:24:29.468Z,94.00
2022-08-17T13:29:51.162Z,92.80
2022-08-17T13:35:12.433Z,92.20
2022-08-17T13:40:17.612Z,91.40
2022-08-17T13:50:49.391Z,97.20
2022-08-17T13:56:37.864Z,96.70
2022-08-17T14:01:52.860Z,99.70
2022-08-17T14:07:24.375Z,95.90
2022-08-17T14:12:28.865Z,94.30
2022-08-17T14:17:37.920Z,94.60
2022-08-17T14:22:45.533Z,96.50
2022-08-17T14:27:53.010Z,96.70
2022-08-17T14:32:58.143Z,97.20
2022-08-17T14:38:02.243Z,93.60
2022-08-17T14:43:04.619Z,95.30
2022-08-17T14:48:09.964Z,97.60
2022-08-17T14:53:16.021Z,96.00
2022-08-17T14:58:19.589Z,94.70
2022-08-17T15:03:23.488Z,98.00
2022-08-17T15:08:26.041Z,96.50
2022-08-17T15:13:29.296Z,96.70
2022-08-17T15:18:32.049Z,96.00
2022-08-17T15:23:34.473Z,96.70
2022-08-17T15:28:37.859Z,97.10
2022-08-17T15:33:41.007Z,96.40
2022-08-17T15:38:44.427Z,97.80
2022-08-17T15:43:50.241Z,97.80
2022-08-17T15:48:58.249Z,99.70
2022-08-17T15:54:18.767Z,97.50
2022-08-17T15:59:25.179Z,97.10
2022-08-17T16:04:30.875Z,98.40
2022-08-17T16:09:34.127Z,97.90
2022-08-17T16:14:36.728Z,97.50
2022-08-17T16:19:40.557Z,98.10
2022-08-17T16:24:57.047Z,98.20
2022-08-17T16:30:00.950Z,97.80
2022-08-17T16:35:11.210Z,99.70
2022-08-17T16:40:16.060Z,99.70
2022-08-17T16:45:39.968Z,99.70
2022-08-17T16:50:43.417Z,99.90
2022-08-17T16:56:07.245Z,99.90
2022-08-17T17:01:09.773Z,99.90
2022-08-17T17:06:37.213Z,99.90
2022-08-17T17:11:48.065Z,99.90
2022-08-17T17:17:12.683Z,99.90
2022-08-17T17:22:22.163Z,99.90
2022-08-17T17:27:54.499Z,99.90
2022-08-17T17:33:04.945Z,99.90
2022-08-17T17:38:15.303Z,99.90
2022-08-17T17:43:38.433Z,99.90
2022-08-17T17:48:41.690Z,99.90
2022-08-17T17:54:12.976Z,99.90
2022-08-17T17:59:28.912Z,99.90
2022-08-17T18:04:32.691Z,99.90
2022-08-17T18:10:01.035Z,99.90
2022-08-17T18:15:11.217Z,99.90
2022-08-17T18:20:19.996Z,99.90
2022-08-17T18:25:52.053Z,99.90
2022-08-17T18:31:25.791Z,99.90
2022-08-17T18:36:32.699Z,99.90
2022-08-17T18:41:45.833Z,99.90
2022-08-17T18:47:04.621Z,99.90
2022-08-17T18:52:09.626Z,99.90
2022-08-17T18:57:30.120Z,99.90
2022-08-17T19:02:45.138Z,99.90
2022-08-17T19:07:48.471Z,99.90
2022-08-17T19:13:00.737Z,99.90
2022-08-17T19:18:15.550Z,99.90
2022-08-17T19:23:30.455Z,99.90
2022-08-17T19:28:41.741Z,99.90
2022-08-17T19:33:48.014Z,99.90
2022-08-17T19:39:13.752Z,99.90
2022-08-17T19:44:51.414Z,99.90
2022-08-17T19:50:31.849Z,99.90
2022-08-17T19:55:55.129Z,99.90
2022-08-17T20:00:57.659Z,99.90
2022-08-17T20:06:12.451Z,99.90
2022-08-17T20:11:23.079Z,99.90
2022-08-17T20:16:25.544Z,99.90
2022-08-17T20:21:51.851Z,99.90
2022-08-17T20:26:59.327Z,99.90
2022-08-17T20:32:02.251Z,99.90
2022-08-17T20:37:24.294Z,99.90
2022-08-17T20:42:27.860Z,99.90
2022-08-17T20:47:50.454Z,99.90
2022-08-17T20:53:06.873Z,99.90
2022-08-17T20:58:15.279Z,99.90
2022-08-17T21:03:23.550Z,99.90
2022-08-17T21:08:29.701Z,99.90
2022-08-17T21:13:49.322Z,99.90
2022-08-17T21:19:08.901Z,99.90
2022-08-17T21:24:26.334Z,99.90
2022-08-17T21:29:34.024Z,99.90
2022-08-17T21:34:44.633Z,99.90
2022-08-17T21:40:01.105Z,99.90
2022-08-17T21:45:22.384Z,99.90
2022-08-17T21:50:25.141Z,99.90
2022-08-17T21:55:30.565Z,99.90
2022-08-17T22:00:33.605Z,99.90
2022-08-17T22:05:39.662Z,99.90
2022-08-17T22:10:44.681Z,99.90
2022-08-17T22:15:50.724Z,99.90
2022-08-17T22:20:56.107Z,99.90
2022-08-17T22:26:00.943Z,99.90
2022-08-17T22:31:05.183Z,99.90
2022-08-17T22:36:12.404Z,99.90
2022-08-17T22:41:59.441Z,99.90
2022-08-17T22:47:18.738Z,99.90
2022-08-17T22:53:02.062Z,99.90
2022-08-17T22:58:30.778Z,99.90
2022-08-17T23:03:51.892Z,99.90
2022-08-17T23:08:56.316Z,99.90
2022-08-17T23:13:59.368Z,99.90
2022-08-17T23:19:01.864Z,99.90
2022-08-17T23:24:08.955Z,99.90
2022-08-17T23:29:11.391Z,99.90
2022-08-17T23:34:15.257Z,99.90
2022-08-17T23:39:24.674Z,99.90
2022-08-17T23:44:31.660Z,99.90
2022-08-17T23:49:36.316Z,99.90
2022-08-17T23:54:46.662Z,99.90
2022-08-17T23:59:49.274Z,99.90
